首页
METAR-TAF:

METAR-TAF

机场 :

雷克雅維克, 冰岛

纬度: 64-08N, 经度: 021-54W, 海拔: 54米

当前天气观测

该预报发布于36分钟前的14:00 UTC
风速7节,风向,在东北东转东南之间变化
温度 3°C
湿度 70%
气压 1011 hPa
能见度10公里或以上
多云层高于3200英尺
阴天层高于4500英尺
小毛毛雨

METAR: BIRK 231400Z 09007KT 050V110 9999 -DZ BKN032 OVC045 03/M02 Q1011

时间: 14:36 (14:36 UTC)

预报

该预报发布于4小时和17分钟前的10:19 UTC
预报有效从23日的 12点(UTC)到 24日的 12点(UTC)
风速10节,风向
能见度10公里或以上
散云层高于2500英尺
多云层高于5000英尺
几率 30% :
短暂存在
从 23日的 12点(UTC)到 23日的 18点(UTC)
能見度: 9000
多云层高于2000英尺
阴天层高于3000英尺
成为
从 23日的 17点(UTC)到 23日的 19点(UTC)
风速17节,风向东转东南,有时为27节阵风
能見度: 7000
多云层高于1500英尺
阴天层高于2500英尺
短暂存在
从 23日的 19点(UTC)到 24日的 09点(UTC)
能見度: 3500
多云层高于600英尺
阴天层高于1200英尺
雨, 毛毛雨
成为
从 23日的 22点(UTC)到 24日的 01点(UTC)
风速17节,风向南转西南,有时为27节阵风

TAF: BIRK 231019Z 2312/2412 09010KT 9999 SCT025 BKN050 TX08/2323Z TN03/2312Z PROB30 TEMPO 2312/2318 9000 RA BKN020 OVC030 BECMG 2317/2319 12017G27KT 7000 RA BKN015 OVC025 TEMPO 2319/2409 3500 RADZ BKN006 OVC012 BECMG 2322/2401 20017G27KT

超过4000个机场的气象观测和天气预报(METAR&TAF报告)。

可查询的气象台以黄色和红色小点在地图上表示。

将鼠标移到小点上方,可查看气象台名称。

然后点击查看天气观测和预报。

如需切换地图:点击带黑十字的绿色按钮放大地图;点击带横线的绿色按钮缩小地图;或者点击绿色箭头查看邻近地区的地图。


METAR-TAF: